createdAt,value
2018-12-15T00:00:22.541Z,10.68
2018-12-15T00:02:50.750Z,9.85
2018-12-15T00:05:18.987Z,10.93
2018-12-15T00:07:47.251Z,9.48
2018-12-15T00:10:15.418Z,9.90
2018-12-15T00:12:43.693Z,11.10
2018-12-15T00:15:11.849Z,10.23
2018-12-15T00:17:40.046Z,9.38
2018-12-15T00:20:08.359Z,7.92
2018-12-15T00:22:36.596Z,9.53
2018-12-15T00:25:05.124Z,8.03
2018-12-15T00:27:34.107Z,8.80
2018-12-15T00:30:03.859Z,10.35
2018-12-15T00:32:31.992Z,9.28
2018-12-15T00:35:01.403Z,7.45
2018-12-15T00:37:29.570Z,8.60
2018-12-15T00:39:57.872Z,8.50
2018-12-15T00:42:31.290Z,7.05
2018-12-15T00:44:59.546Z,7.58
2018-12-15T00:47:27.824Z,7.35
2018-12-15T00:49:55.980Z,7.25
2018-12-15T00:52:24.246Z,7.42
2018-12-15T00:54:52.513Z,8.80
2018-12-15T00:57:20.808Z,8.35
2018-12-15T00:59:48.968Z,8.28
2018-12-15T01:02:17.182Z,7.17
2018-12-15T01:04:45.460Z,8.20
2018-12-15T01:07:13.689Z,8.25
2018-12-15T01:09:41.917Z,8.05
2018-12-15T01:12:11.249Z,8.00
2018-12-15T01:17:20.471Z,8.58
2018-12-15T01:19:46.313Z,7.67
2018-12-15T01:22:14.573Z,7.65
2018-12-15T01:24:42.727Z,8.15
2018-12-15T01:27:10.856Z,8.98
2018-12-15T01:29:39.839Z,8.00
2018-12-15T01:32:08.097Z,8.15
2018-12-15T01:34:36.341Z,6.62
2018-12-15T01:37:05.271Z,7.55
2018-12-15T01:39:33.567Z,7.90
2018-12-15T01:42:01.923Z,7.85
2018-12-15T01:44:30.267Z,8.63
2018-12-15T01:46:58.475Z,7.87
2018-12-15T01:49:26.645Z,7.83
2018-12-15T01:51:55.164Z,7.40
2018-12-15T01:54:23.266Z,8.33
2018-12-15T01:56:51.405Z,6.65
2018-12-15T01:59:19.598Z,8.30
2018-12-15T02:01:48.002Z,6.70
2018-12-15T02:04:16.158Z,7.40
2018-12-15T02:06:44.671Z,7.25
2018-12-15T02:09:13.024Z,6.50
2018-12-15T02:11:41.188Z,6.55
2018-12-15T02:14:09.413Z,7.30
2018-12-15T02:16:37.675Z,5.85
2018-12-15T02:19:05.970Z,5.95
2018-12-15T02:21:34.216Z,6.45
2018-12-15T02:24:02.431Z,6.25
2018-12-15T02:26:30.639Z,5.35
2018-12-15T02:28:58.815Z,5.60
2018-12-15T02:31:27.010Z,6.53
2018-12-15T02:33:56.288Z,6.45
2018-12-15T02:36:24.426Z,6.10
2018-12-15T02:38:52.536Z,5.75
2018-12-15T02:41:20.774Z,5.62
2018-12-15T02:43:49.060Z,4.80
2018-12-15T02:46:17.335Z,5.22
2018-12-15T02:48:45.625Z,5.25
2018-12-15T02:51:13.869Z,4.75
2018-12-15T02:53:42.107Z,5.80
2018-12-15T02:56:11.140Z,5.78
2018-12-15T02:58:39.394Z,3.90
2018-12-15T03:01:07.730Z,3.90
2018-12-15T03:03:35.911Z,4.05
2018-12-15T03:06:05.507Z,4.42
2018-12-15T03:08:33.760Z,3.75
2018-12-15T03:11:01.885Z,3.55
2018-12-15T03:13:30.239Z,4.15
2018-12-15T03:15:58.437Z,3.83
2018-12-15T03:18:26.546Z,3.95
2018-12-15T03:21:01.418Z,5.30
2018-12-15T03:23:29.730Z,4.20
2018-12-15T03:25:59.306Z,5.35
2018-12-15T03:28:27.519Z,5.25
2018-12-15T03:30:57.261Z,7.28
2018-12-15T03:33:25.840Z,4.15
2018-12-15T03:35:54.176Z,4.50
2018-12-15T03:38:22.430Z,4.87
2018-12-15T03:40:50.657Z,4.72
2018-12-15T03:43:18.931Z,4.92
2018-12-15T03:45:47.154Z,5.00
2018-12-15T03:48:15.363Z,5.25
2018-12-15T03:50:43.600Z,5.05
2018-12-15T03:53:12.390Z,5.70
2018-12-15T03:55:41.224Z,5.12
2018-12-15T03:58:09.456Z,5.53
2018-12-15T04:00:38.612Z,5.35
2018-12-15T04:03:06.750Z,4.95
2018-12-15T04:05:39.071Z,5.58
2018-12-15T04:08:08.119Z,4.90
2018-12-15T04:10:36.302Z,5.47
2018-12-15T04:13:05.485Z,5.70
2018-12-15T04:15:33.762Z,4.28
2018-12-15T04:18:03.839Z,4.20
2018-12-15T04:20:32.592Z,4.50
2018-12-15T04:23:00.823Z,5.58
2018-12-15T04:25:29.723Z,6.65
2018-12-15T04:27:59.038Z,5.28
2018-12-15T04:30:27.289Z,5.05
2018-12-15T04:32:55.444Z,5.47
2018-12-15T04:35:23.827Z,6.05
2018-12-15T04:37:52.014Z,5.37
2018-12-15T04:40:20.586Z,4.92
2018-12-15T04:42:48.833Z,6.67
2018-12-15T04:45:17.159Z,5.45
2018-12-15T04:47:45.393Z,5.97
2018-12-15T04:50:14.099Z,4.90
2018-12-15T04:52:43.086Z,4.85
2018-12-15T04:55:11.240Z,5.78
2018-12-15T04:57:39.484Z,6.40
2018-12-15T05:00:07.951Z,5.45
2018-12-15T05:02:36.152Z,5.42
2018-12-15T05:05:04.630Z,5.72
2018-12-15T05:07:32.938Z,6.05
2018-12-15T05:10:01.794Z,5.78
2018-12-15T05:12:30.176Z,5.10
2018-12-15T05:14:58.353Z,5.55
2018-12-15T05:17:26.552Z,5.15
2018-12-15T05:19:54.812Z,6.28
2018-12-15T05:22:23.112Z,5.55
2018-12-15T05:24:52.030Z,5.60
2018-12-15T05:27:20.250Z,5.50
2018-12-15T05:29:48.555Z,5.17
2018-12-15T05:32:16.868Z,6.95
2018-12-15T05:34:45.196Z,5.05
2018-12-15T05:37:13.378Z,7.35
2018-12-15T05:39:42.520Z,5.65
2018-12-15T05:42:10.758Z,5.75
2018-12-15T05:44:38.998Z,5.28
2018-12-15T05:47:08.877Z,6.12
2018-12-15T05:49:37.113Z,5.90
2018-12-15T05:52:05.286Z,5.87
2018-12-15T05:54:33.505Z,7.35
2018-12-15T05:57:01.698Z,6.58
2018-12-15T05:59:29.947Z,6.45
2018-12-15T06:01:58.915Z,7.03
2018-12-15T06:04:27.022Z,7.05
2018-12-15T06:06:55.177Z,6.22
2018-12-15T06:09:23.367Z,7.12
2018-12-15T06:11:51.683Z,7.20
2018-12-15T06:14:19.987Z,7.47
2018-12-15T06:16:48.181Z,7.20
2018-12-15T06:19:16.360Z,7.90
2018-12-15T06:21:44.647Z,7.03
2018-12-15T06:24:12.893Z,7.08
2018-12-15T06:26:41.186Z,6.80
2018-12-15T06:29:09.359Z,9.05
2018-12-15T06:31:37.533Z,7.40
2018-12-15T06:34:05.679Z,8.25
2018-12-15T06:36:33.919Z,7.65
2018-12-15T06:39:02.135Z,7.50
2018-12-15T06:41:30.383Z,7.62
2018-12-15T06:43:59.351Z,8.03
2018-12-15T06:46:27.596Z,7.60
2018-12-15T06:48:55.789Z,7.58
2018-12-15T06:51:23.939Z,7.28
2018-12-15T06:53:52.141Z,6.70
2018-12-15T06:56:24.584Z,6.72
2018-12-15T06:58:52.771Z,8.03
2018-12-15T07:01:21.064Z,7.00
2018-12-15T07:03:50.371Z,7.17
2018-12-15T07:06:18.557Z,8.13
2018-12-15T07:08:46.777Z,7.35
2018-12-15T07:11:14.989Z,7.22
2018-12-15T07:13:43.929Z,7.58
2018-12-15T07:16:12.123Z,7.22
2018-12-15T07:18:44.828Z,7.50
2018-12-15T07:21:10.634Z,8.45
2018-12-15T07:23:38.899Z,7.50
2018-12-15T07:26:08.391Z,8.00
2018-12-15T07:28:36.510Z,8.55
2018-12-15T07:31:06.083Z,8.45
2018-12-15T07:33:35.996Z,7.95
2018-12-15T07:36:04.374Z,8.33
2018-12-15T07:38:32.637Z,8.10
2018-12-15T07:41:01.865Z,6.95
2018-12-15T07:43:29.973Z,7.62
2018-12-15T07:45:58.221Z,7.53
2018-12-15T07:48:26.455Z,6.90
2018-12-15T07:50:54.645Z,7.12
2018-12-15T07:53:22.943Z,7.00
2018-12-15T07:55:51.163Z,7.25
2018-12-15T07:58:19.422Z,6.87
2018-12-15T08:00:47.659Z,6.97
2018-12-15T08:03:15.864Z,6.58
2018-12-15T08:05:45.018Z,7.55
2018-12-15T08:08:13.160Z,7.03
2018-12-15T08:11:51.198Z,6.20
2018-12-15T08:14:19.568Z,6.72
2018-12-15T08:16:48.924Z,7.30
2018-12-15T08:19:17.288Z,7.00
2018-12-15T08:21:45.549Z,7.33
2018-12-15T08:24:13.853Z,7.85
2018-12-15T08:26:42.118Z,7.17
2018-12-15T08:29:10.323Z,6.90
2018-12-15T08:31:38.555Z,7.40
2018-12-15T08:34:07.167Z,6.60
2018-12-15T08:36:35.367Z,8.23
2018-12-15T08:39:06.096Z,6.67
2018-12-15T08:41:34.854Z,6.75
2018-12-15T08:44:03.268Z,7.20
2018-12-15T08:46:31.500Z,6.50
2018-12-15T08:49:04.614Z,7.25
2018-12-15T08:51:30.770Z,7.92
2018-12-15T08:53:59.078Z,7.53
2018-12-15T08:56:27.394Z,6.37
2018-12-15T08:58:55.511Z,7.35
2018-12-15T09:01:23.602Z,7.62
2018-12-15T09:03:51.882Z,7.40
2018-12-15T09:06:20.225Z,7.55
2018-12-15T09:08:48.362Z,6.35
2018-12-15T09:11:16.544Z,7.45
2018-12-15T09:13:44.831Z,7.35
2018-12-15T09:16:13.108Z,7.75
2018-12-15T09:18:41.374Z,8.10
2018-12-15T09:21:09.750Z,8.23
2018-12-15T09:23:37.954Z,7.85
2018-12-15T09:26:06.197Z,8.18
2018-12-15T09:28:34.482Z,7.60
2018-12-15T09:31:02.719Z,8.75
2018-12-15T09:33:30.951Z,9.45
2018-12-15T09:35:59.422Z,8.30
2018-12-15T09:38:27.583Z,9.53
2018-12-15T09:40:57.617Z,8.10
2018-12-15T09:43:26.121Z,8.50
2018-12-15T09:45:54.400Z,8.48
2018-12-15T09:48:22.660Z,9.20
2018-12-15T09:50:51.295Z,8.28
2018-12-15T09:53:23.157Z,8.70
2018-12-15T09:55:59.170Z,9.23
2018-12-15T09:58:27.458Z,8.53
2018-12-15T10:03:38.372Z,9.78
2018-12-15T10:06:06.839Z,7.87
2018-12-15T10:08:34.995Z,9.73
2018-12-15T10:11:03.672Z,9.43
2018-12-15T10:13:31.857Z,9.15
2018-12-15T10:16:00.143Z,9.05
2018-12-15T10:18:28.386Z,8.20
2018-12-15T10:20:56.629Z,8.60
2018-12-15T10:23:24.872Z,8.95
2018-12-15T10:25:53.130Z,9.55
2018-12-15T10:28:21.504Z,9.35
2018-12-15T10:30:56.011Z,9.53
2018-12-15T10:33:24.485Z,9.55
2018-12-15T10:35:53.048Z,9.38
2018-12-15T10:38:22.190Z,8.98
2018-12-15T10:40:50.464Z,8.70
2018-12-15T10:43:18.790Z,8.88
2018-12-15T10:45:47.058Z,9.73
2018-12-15T10:48:15.348Z,9.85
2018-12-15T10:50:44.373Z,9.25
2018-12-15T10:53:12.670Z,9.38
2018-12-15T10:55:41.134Z,9.30
2018-12-15T10:58:09.406Z,10.88
2018-12-15T11:00:42.900Z,9.23
2018-12-15T11:03:11.154Z,9.10
2018-12-15T11:05:40.891Z,10.48
2018-12-15T11:08:09.108Z,13.25
2018-12-15T11:10:37.312Z,9.28
2018-12-15T11:13:05.654Z,10.32
2018-12-15T11:15:34.738Z,8.45
2018-12-15T11:18:03.002Z,8.45
2018-12-15T11:20:31.228Z,10.58
2018-12-15T11:22:59.478Z,9.00
2018-12-15T11:25:28.961Z,9.00
2018-12-15T11:27:57.362Z,9.15
2018-12-15T11:30:25.585Z,8.98
2018-12-15T11:32:53.721Z,9.23
2018-12-15T11:35:22.221Z,11.08
2018-12-15T11:37:50.513Z,10.82
2018-12-15T11:40:18.848Z,23.07
2018-12-15T11:42:47.101Z,10.18
2018-12-15T11:45:15.441Z,9.80
2018-12-15T11:47:50.365Z,10.20
2018-12-15T11:50:35.387Z,10.30
2018-12-15T11:53:04.233Z,9.20
2018-12-15T11:55:32.438Z,10.18
2018-12-15T11:58:00.695Z,9.40
2018-12-15T12:00:29.085Z,9.73
2018-12-15T12:02:58.368Z,10.98
2018-12-15T12:05:26.500Z,10.95
2018-12-15T12:07:54.674Z,10.45
2018-12-15T12:10:24.142Z,11.48
2018-12-15T12:12:52.417Z,10.70
2018-12-15T12:15:20.665Z,10.25
2018-12-15T12:17:49.228Z,11.28
2018-12-15T12:20:17.376Z,10.18
2018-12-15T12:22:45.614Z,12.30
2018-12-15T12:25:13.781Z,11.35
2018-12-15T12:27:41.946Z,10.98
2018-12-15T12:30:10.137Z,10.75
2018-12-15T12:32:38.401Z,10.18
2018-12-15T12:35:06.699Z,11.40
2018-12-15T12:37:34.929Z,11.90
2018-12-15T12:40:03.919Z,10.00
2018-12-15T12:42:32.084Z,10.72
2018-12-15T12:45:00.314Z,10.88
2018-12-15T12:47:28.484Z,10.40
2018-12-15T12:49:57.367Z,11.65
2018-12-15T12:52:25.610Z,10.88
2018-12-15T12:54:53.740Z,11.25
2018-12-15T12:57:21.934Z,10.32
2018-12-15T12:59:50.077Z,11.30
2018-12-15T13:02:18.343Z,11.40
2018-12-15T13:04:46.598Z,11.10
2018-12-15T13:07:14.888Z,11.85
2018-12-15T13:09:43.052Z,12.53
2018-12-15T13:12:11.399Z,11.65
2018-12-15T13:14:39.668Z,11.93
2018-12-15T13:17:10.793Z,9.68
2018-12-15T13:19:43.830Z,11.68
2018-12-15T13:22:12.055Z,12.95
2018-12-15T13:24:40.525Z,11.15
2018-12-15T13:27:09.588Z,13.18
2018-12-15T13:29:37.997Z,11.53
2018-12-15T13:32:06.351Z,11.50
2018-12-15T13:34:34.468Z,11.70
2018-12-15T13:37:03.233Z,11.10
2018-12-15T13:39:31.556Z,11.45
2018-12-15T13:41:59.801Z,10.23
2018-12-15T13:44:28.020Z,10.85
2018-12-15T13:46:56.257Z,11.15
2018-12-15T13:49:25.574Z,11.18
2018-12-15T13:51:53.961Z,10.48
2018-12-15T13:54:22.305Z,11.80
2018-12-15T13:56:50.646Z,10.80
2018-12-15T13:59:19.062Z,11.03
2018-12-15T14:01:47.575Z,11.65
2018-12-15T14:04:16.085Z,13.00
2018-12-15T14:06:44.365Z,12.10
2018-12-15T14:09:13.000Z,11.10
2018-12-15T14:11:41.158Z,11.12
2018-12-15T14:14:09.276Z,13.45
2018-12-15T14:16:37.470Z,11.03
2018-12-15T14:19:05.662Z,11.33
2018-12-15T14:21:34.770Z,11.05
2018-12-15T14:24:02.948Z,11.30
2018-12-15T14:26:34.622Z,16.00
2018-12-15T14:29:02.877Z,10.82
2018-12-15T14:31:31.210Z,12.70
2018-12-15T14:33:59.501Z,12.10
2018-12-15T14:36:27.720Z,12.65
2018-12-15T14:38:56.158Z,12.58
2018-12-15T14:41:24.385Z,12.15
2018-12-15T14:43:52.590Z,14.23
2018-12-15T14:46:20.816Z,12.20
2018-12-15T14:48:49.039Z,12.20
2018-12-15T14:51:17.366Z,12.10
2018-12-15T14:53:45.590Z,11.40
2018-12-15T14:56:13.915Z,13.18
2018-12-15T14:58:42.538Z,11.40
2018-12-15T15:01:11.128Z,10.72
2018-12-15T15:03:40.727Z,11.40
2018-12-15T15:06:09.091Z,12.35
2018-12-15T15:08:37.527Z,12.80
2018-12-15T15:11:06.915Z,10.48
2018-12-15T15:13:35.293Z,12.68
2018-12-15T15:16:03.737Z,12.28
2018-12-15T15:18:32.328Z,12.90
2018-12-15T15:21:00.554Z,12.65
2018-12-15T15:23:28.977Z,12.55
2018-12-15T15:25:57.611Z,13.53
2018-12-15T15:28:26.327Z,12.73
2018-12-15T15:30:55.204Z,12.05
2018-12-15T15:33:23.617Z,11.73
2018-12-15T15:35:52.392Z,11.90
2018-12-15T15:38:24.082Z,16.57
2018-12-15T15:40:52.439Z,11.78
2018-12-15T15:43:20.718Z,11.25
2018-12-15T15:45:49.121Z,12.63
2018-12-15T15:48:22.867Z,13.25
2018-12-15T15:50:57.124Z,12.43
2018-12-15T15:53:25.745Z,12.53
2018-12-15T15:55:54.031Z,12.33
2018-12-15T15:58:23.353Z,12.78
2018-12-15T16:00:52.969Z,12.20
2018-12-15T16:03:21.227Z,13.43
2018-12-15T16:05:49.360Z,12.65
2018-12-15T16:08:17.644Z,11.90
2018-12-15T16:10:45.873Z,12.65
2018-12-15T16:13:14.077Z,12.03
2018-12-15T16:15:42.295Z,11.73
2018-12-15T16:18:10.600Z,12.88
2018-12-15T16:20:43.125Z,14.55
2018-12-15T16:23:09.113Z,12.85
2018-12-15T16:25:37.301Z,14.00
2018-12-15T16:28:05.428Z,13.75
2018-12-15T16:30:33.688Z,12.30
2018-12-15T16:33:02.029Z,14.05
2018-12-15T16:35:30.280Z,12.30
2018-12-15T16:37:58.841Z,14.20
2018-12-15T16:40:26.978Z,12.80
2018-12-15T16:42:55.194Z,16.80
2018-12-15T16:45:23.309Z,14.25
2018-12-15T16:47:51.606Z,14.03
2018-12-15T16:50:19.798Z,13.70
2018-12-15T16:52:48.214Z,13.35
2018-12-15T16:55:19.016Z,14.25
2018-12-15T16:57:47.318Z,13.48
2018-12-15T17:00:15.584Z,13.95
2018-12-15T17:02:44.485Z,14.10
2018-12-15T17:05:13.374Z,15.00
2018-12-15T17:07:41.538Z,14.65
2018-12-15T17:10:10.148Z,13.43
2018-12-15T17:12:38.407Z,13.93
2018-12-15T17:15:08.236Z,15.10
2018-12-15T17:17:36.474Z,13.75
2018-12-15T17:20:05.281Z,16.20
2018-12-15T17:22:33.543Z,13.25
2018-12-15T17:25:01.902Z,17.02
2018-12-15T17:27:31.690Z,17.02
2018-12-15T17:30:00.064Z,15.63
2018-12-15T17:32:28.349Z,16.32
2018-12-15T17:34:56.776Z,17.25
2018-12-15T17:37:25.012Z,16.02
2018-12-15T17:39:53.135Z,16.20
2018-12-15T17:42:21.320Z,16.17
2018-12-15T17:44:49.541Z,16.90
2018-12-15T17:47:18.556Z,16.35
2018-12-15T17:49:46.862Z,17.87
2018-12-15T17:52:15.120Z,15.95
2018-12-15T17:54:43.314Z,16.73
2018-12-15T17:57:11.605Z,17.30
2018-12-15T17:59:39.998Z,15.58
2018-12-15T18:02:08.326Z,17.00
2018-12-15T18:04:36.714Z,16.48
2018-12-15T18:07:05.720Z,19.32
2018-12-15T18:09:34.617Z,15.80
2018-12-15T18:12:03.002Z,16.42
2018-12-15T18:14:31.158Z,16.48
2018-12-15T18:16:59.544Z,16.70
2018-12-15T18:19:28.036Z,17.12
2018-12-15T18:21:56.368Z,16.00
2018-12-15T18:24:24.689Z,15.60
2018-12-15T18:26:52.923Z,17.87
2018-12-15T18:29:21.153Z,16.93
2018-12-15T18:31:49.377Z,16.60
2018-12-15T18:34:17.698Z,16.27
2018-12-15T18:36:45.990Z,17.27
2018-12-15T18:39:15.062Z,15.20
2018-12-15T18:41:43.347Z,16.10
2018-12-15T18:44:11.615Z,15.53
2018-12-15T18:46:41.097Z,16.00
2018-12-15T18:49:09.376Z,17.02
2018-12-15T18:51:37.531Z,16.70
2018-12-15T18:54:05.804Z,15.48
2018-12-15T18:56:34.170Z,15.70
2018-12-15T18:59:02.601Z,23.70
2018-12-15T19:01:30.911Z,16.55
2018-12-15T19:03:59.222Z,16.40
2018-12-15T19:06:28.449Z,16.93
2018-12-15T19:08:56.678Z,22.50
2018-12-15T19:11:25.335Z,16.62
2018-12-15T19:13:53.553Z,16.15
2018-12-15T19:16:21.824Z,15.45
2018-12-15T19:18:49.997Z,15.43
2018-12-15T19:21:22.980Z,17.12
2018-12-15T19:23:48.513Z,15.93
2018-12-15T19:26:16.714Z,17.30
2018-12-15T19:28:44.908Z,16.95
2018-12-15T19:31:13.195Z,17.07
2018-12-15T19:33:41.767Z,15.55
2018-12-15T19:36:11.599Z,17.05
2018-12-15T19:38:40.145Z,17.27
2018-12-15T19:43:45.798Z,17.87
2018-12-15T19:46:14.745Z,17.75
2018-12-15T19:48:43.610Z,19.77
2018-12-15T19:51:12.021Z,17.30
2018-12-15T19:53:41.383Z,18.67
2018-12-15T19:56:11.088Z,19.30
2018-12-15T19:58:39.664Z,18.45
2018-12-15T20:01:08.887Z,18.07
2018-12-15T20:03:37.510Z,18.90
2018-12-15T20:06:10.582Z,19.57
2018-12-15T20:08:39.222Z,18.60
2018-12-15T20:11:07.975Z,17.20
2018-12-15T20:13:36.446Z,18.98
2018-12-15T20:16:04.811Z,17.15
2018-12-15T20:18:33.053Z,17.87
2018-12-15T20:21:01.707Z,18.37
2018-12-15T20:23:30.096Z,15.50
2018-12-15T20:25:58.354Z,18.40
2018-12-15T20:28:27.550Z,18.32
2018-12-15T20:30:55.827Z,17.95
2018-12-15T20:33:24.217Z,17.90
2018-12-15T20:35:52.576Z,16.95
2018-12-15T20:38:21.421Z,18.25
2018-12-15T20:40:49.628Z,18.07
2018-12-15T20:43:18.524Z,17.32
2018-12-15T20:45:47.528Z,17.90
2018-12-15T20:48:15.942Z,19.52
2018-12-15T20:50:44.317Z,18.60
2018-12-15T20:53:12.701Z,18.40
2018-12-15T20:55:41.504Z,16.60
2018-12-15T20:58:09.652Z,18.32
2018-12-15T21:00:37.878Z,16.65
2018-12-15T21:03:06.167Z,18.65
2018-12-15T21:05:36.817Z,18.15
2018-12-15T21:08:04.851Z,18.52
2018-12-15T21:10:33.543Z,19.57
2018-12-15T21:13:01.798Z,19.25
2018-12-15T21:15:32.978Z,19.25
2018-12-15T21:18:01.692Z,18.23
2018-12-15T21:20:30.075Z,18.80
2018-12-15T21:22:58.582Z,19.40
2018-12-15T21:25:26.848Z,18.55
2018-12-15T21:27:55.352Z,19.62
2018-12-15T21:30:23.649Z,23.25
2018-12-15T21:32:52.070Z,18.35
2018-12-15T21:35:20.633Z,21.82
2018-12-15T21:37:48.871Z,19.12
2018-12-15T21:40:17.240Z,19.77
2018-12-15T21:42:45.464Z,21.40
2018-12-15T21:45:13.887Z,20.02
2018-12-15T21:47:42.980Z,19.65
2018-12-15T21:50:12.577Z,19.95
2018-12-15T21:52:41.103Z,19.12
2018-12-15T21:55:09.551Z,19.70
2018-12-15T21:57:38.177Z,21.70
2018-12-15T22:00:06.671Z,21.17
2018-12-15T22:02:36.693Z,22.10
2018-12-15T22:05:05.636Z,20.35
2018-12-15T22:07:35.675Z,20.50
2018-12-15T22:10:04.679Z,22.22
2018-12-15T22:12:33.472Z,20.15
2018-12-15T22:15:01.705Z,21.45
2018-12-15T22:17:29.941Z,21.42
2018-12-15T22:19:58.193Z,21.60
2018-12-15T22:22:26.473Z,21.35
2018-12-15T22:24:54.824Z,19.23
2018-12-15T22:27:23.157Z,19.95
2018-12-15T22:29:51.359Z,19.90
2018-12-15T22:32:19.623Z,20.62
2018-12-15T22:34:47.817Z,19.25
2018-12-15T22:37:16.207Z,18.77
2018-12-15T22:39:44.417Z,23.32
2018-12-15T22:42:12.969Z,30.77
2018-12-15T22:44:41.136Z,19.92
2018-12-15T22:47:12.685Z,20.97
2018-12-15T22:49:41.607Z,20.45
2018-12-15T22:52:10.249Z,19.87
2018-12-15T22:54:39.653Z,20.12
2018-12-15T22:57:09.061Z,20.70
2018-12-15T22:59:37.625Z,21.55
2018-12-15T23:02:05.900Z,20.68
2018-12-15T23:04:34.195Z,20.08
2018-12-15T23:07:02.502Z,20.77
2018-12-15T23:09:30.741Z,18.50
2018-12-15T23:12:09.595Z,22.00
2018-12-15T23:14:38.311Z,21.82
2018-12-15T23:20:48.787Z,19.55
2018-12-15T23:23:19.878Z,21.85
2018-12-15T23:25:48.061Z,18.25
2018-12-15T23:28:16.337Z,19.75
2018-12-15T23:30:44.687Z,21.55
2018-12-15T23:33:13.220Z,20.52
2018-12-15T23:35:42.007Z,20.00
2018-12-15T23:38:10.275Z,21.15
2018-12-15T23:40:38.534Z,20.62
2018-12-15T23:43:06.863Z,21.07
2018-12-15T23:45:35.048Z,19.10
2018-12-15T23:48:03.351Z,19.60
2018-12-15T23:50:31.642Z,20.85
2018-12-15T23:53:01.151Z,20.88
2018-12-15T23:55:29.369Z,20.45
2018-12-15T23:57:57.691Z,19.98
